Time;durP1;ratioP1;P1;durP2;ratioP2;P2;SDS_P1;SDS_P2;PMS_P1;PMS_P2;Temp;Humidity;BMP_temperature;BMP_pressure;BME280_temperature;BME280_humidity;BME280_pressure;Samples;Min_cycle;Max_cycle;Signal;HPM_P1;HPM_P2
2022/08/29 00:02:06;;;;;;;3.07;1.30;;;27.60;99.90;;;;;;5057532;28;20267;-94
2022/08/29 00:04:39;;;;;;;3.10;1.30;;;27.60;99.90;;;;;;5060620;28;20272;-94
2022/08/29 00:07:13;;;;;;;3.03;1.20;;;27.50;99.90;;;;;;5060533;28;20222;-94
2022/08/29 00:09:44;;;;;;;3.50;1.47;;;27.30;99.90;;;;;;5060229;28;20196;-94
2022/08/29 00:12:21;;;;;;;1.97;1.23;;;27.00;99.90;;;;;;5060564;28;20231;-93
2022/08/29 00:14:52;;;;;;;2.97;1.40;;;27.10;99.90;;;;;;5067862;28;20242;-93
2022/08/29 00:17:24;;;;;;;4.33;1.73;;;27.30;99.90;;;;;;5078696;28;20212;-93
2022/08/29 00:19:55;;;;;;;3.73;1.50;;;27.40;99.90;;;;;;5079797;28;20207;-93
2022/08/29 00:22:26;;;;;;;4.70;1.90;;;27.20;99.90;;;;;;5077367;28;20222;-94
2022/08/29 00:25:01;;;;;;;5.53;1.90;;;26.90;99.90;;;;;;5076582;28;20211;-93
2022/08/29 00:27:35;;;;;;;4.63;2.20;;;26.90;99.90;;;;;;5080972;28;20199;-92
2022/08/29 00:30:09;;;;;;;4.17;2.10;;;26.90;99.90;;;;;;5080061;28;20195;-93
2022/08/29 00:32:50;;;;;;;4.60;2.00;;;26.70;99.90;;;;;;5078990;28;20212;-94
2022/08/29 00:35:24;;;;;;;7.17;2.13;;;26.30;99.90;;;;;;5076764;28;20239;-92
2022/08/29 00:37:57;;;;;;;2.87;1.70;;;26.20;99.90;;;;;;5080904;28;20195;-92
2022/08/29 00:40:32;;;;;;;5.27;2.13;;;26.20;99.90;;;;;;5077056;28;20244;-92
2022/08/29 00:43:10;;;;;;;4.07;1.90;;;26.40;99.90;;;;;;5077335;28;20214;-91
2022/08/29 00:45:51;;;;;;;4.33;2.13;;;26.40;99.90;;;;;;5080202;28;20203;-93
2022/08/29 00:48:23;;;;;;;5.27;2.40;;;26.50;99.90;;;;;;5079183;28;20204;-92
2022/08/29 00:50:57;;;;;;;4.60;2.20;;;26.30;99.90;;;;;;5077779;28;20203;-92
2022/08/29 00:53:32;;;;;;;4.50;2.20;;;26.20;99.90;;;;;;5080338;28;20212;-91
2022/08/29 00:56:05;;;;;;;4.97;2.43;;;25.90;99.90;;;;;;5081592;28;20199;-92
2022/08/29 00:58:42;;;;;;;3.80;2.20;;;25.80;99.90;;;;;;5079028;28;20199;-92
2022/08/29 01:01:14;;;;;;;4.50;2.07;;;25.70;99.90;;;;;;5082425;28;20293;-92
2022/08/29 01:03:46;;;;;;;4.47;2.33;;;25.80;99.90;;;;;;5080392;28;20233;-92
2022/08/29 01:06:20;;;;;;;5.63;2.13;;;25.70;99.90;;;;;;5083678;28;20243;-91
2022/08/29 01:08:54;;;;;;;2.63;1.90;;;25.60;99.90;;;;;;5083446;28;20207;-90
2022/08/29 01:14:20;;;;;;;5.77;2.07;;;25.50;99.90;;;;;;5080641;28;20235;-92
2022/08/29 01:16:55;;;;;;;3.70;1.87;;;25.70;99.90;;;;;;5060450;28;20227;-93
2022/08/29 01:19:40;;;;;;;5.03;2.23;;;26.00;99.90;;;;;;5060444;28;20216;-92
2022/08/29 01:22:33;;;;;;;5.00;2.00;;;26.20;99.90;;;;;;5058511;28;20262;-93
2022/08/29 01:25:13;;;;;;;4.50;1.87;;;26.40;99.90;;;;;;5059469;28;20274;-93
2022/08/29 01:27:49;;;;;;;4.47;2.00;;;26.20;99.90;;;;;;5059332;28;20208;-93
2022/08/29 01:30:22;;;;;;;4.37;2.30;;;25.70;99.90;;;;;;5070509;28;20574;-93
2022/08/29 01:32:56;;;;;;;6.07;2.00;;;25.10;99.90;;;;;;5075574;28;20212;-93
2022/08/29 01:35:28;;;;;;;7.53;2.10;;;24.70;99.90;;;;;;5078080;28;20215;-94
2022/08/29 01:38:00;;;;;;;5.60;2.07;;;24.40;99.90;;;;;;5078109;28;20207;-93
2022/08/29 01:40:37;;;;;;;5.10;2.30;;;24.00;99.90;;;;;;5143491;22;20310;-94
2022/08/29 01:43:09;;;;;;;3.60;2.07;;;23.70;99.90;;;;;;5073805;28;20228;-95
2022/08/29 01:45:41;;;;;;;4.67;1.93;;;23.60;99.90;;;;;;5077238;28;20212;-95
2022/08/29 01:48:13;;;;;;;3.17;1.67;;;23.50;99.90;;;;;;5077203;28;20203;-95
2022/08/29 01:50:45;;;;;;;4.07;2.03;;;23.50;99.90;;;;;;5077014;28;20243;-95
2022/08/29 01:53:17;;;;;;;4.07;1.77;;;23.40;99.90;;;;;;5075472;28;20260;-94
2022/08/29 01:55:50;;;;;;;2.63;1.90;;;23.30;99.90;;;;;;5077039;28;20240;-96
2022/08/29 01:58:21;;;;;;;3.30;1.67;;;23.20;99.90;;;;;;5072252;28;20205;-96
2022/08/29 02:00:53;;;;;;;3.77;1.70;;;23.10;99.90;;;;;;5061068;28;20200;-96
2022/08/29 02:03:24;;;;;;;2.03;1.50;;;22.90;99.90;;;;;;5062661;28;20573;-96
2022/08/29 02:05:57;;;;;;;4.47;1.73;;;22.80;99.90;;;;;;5078508;28;20196;-96
2022/08/29 02:08:30;;;;;;;3.87;1.80;;;22.70;99.90;;;;;;5078408;28;20196;-96
2022/08/29 02:11:08;;;;;;;3.03;1.90;;;22.60;99.90;;;;;;5078203;28;20226;-95
2022/08/29 02:13:41;;;;;;;3.60;1.70;;;22.60;99.90;;;;;;5074663;28;20225;-96
2022/08/29 02:16:13;;;;;;;1.83;1.50;;;22.50;99.90;;;;;;5045750;28;20259;-96
2022/08/29 02:18:44;;;;;;;3.10;1.87;;;22.30;99.90;;;;;;5040378;28;20208;-96
2022/08/29 02:21:17;;;;;;;2.00;1.43;;;22.20;99.90;;;;;;5055040;28;20278;-96
2022/08/29 02:23:50;;;;;;;2.60;1.80;;;22.20;99.90;;;;;;5054640;28;20185;-95
2022/08/29 02:26:23;;;;;;;3.27;1.93;;;22.10;99.90;;;;;;5037349;28;20204;-95
2022/08/29 02:28:56;;;;;;;3.23;1.47;;;22.00;99.90;;;;;;5019365;28;20213;-96
2022/08/29 02:31:27;;;;;;;4.30;1.77;;;21.90;99.90;;;;;;5098290;22;20270;-96
2022/08/29 02:33:59;;;;;;;3.83;2.27;;;21.80;99.90;;;;;;5058960;28;20234;-96
2022/08/29 02:36:30;;;;;;;5.13;1.90;;;21.80;99.90;;;;;;5060560;28;20745;-94
2022/08/29 02:39:03;;;;;;;3.67;1.70;;;21.70;99.90;;;;;;5058828;28;20211;-94
2022/08/29 02:41:37;;;;;;;5.97;2.10;;;21.50;99.90;;;;;;5059703;28;20204;-94
2022/08/29 02:44:13;;;;;;;3.47;1.90;;;21.40;99.90;;;;;;5062501;28;20208;-93
2022/08/29 02:46:44;;;;;;;9.30;2.30;;;21.30;99.90;;;;;;5060786;28;20223;-96
2022/08/29 02:49:18;;;;;;;3.07;1.70;;;21.20;99.90;;;;;;5061140;28;20220;-93
2022/08/29 02:51:50;;;;;;;2.83;1.80;;;21.10;99.90;;;;;;5056562;28;20235;-94
2022/08/29 02:54:22;;;;;;;5.43;1.87;;;21.10;99.90;;;;;;5060590;28;20605;-94
2022/08/29 02:56:56;;;;;;;3.77;1.97;;;21.10;99.90;;;;;;5061253;28;20224;-94
2022/08/29 02:59:27;;;;;;;5.40;2.30;;;21.00;99.90;;;;;;5059804;28;20216;-94
2022/08/29 03:01:58;;;;;;;6.50;2.50;;;20.90;99.90;;;;;;5059214;28;20247;-95
2022/08/29 03:04:29;;;;;;;5.67;2.77;;;20.80;99.90;;;;;;5061568;28;20204;-94
2022/08/29 03:07:01;;;;;;;4.03;2.30;;;20.60;99.90;;;;;;5057103;28;20204;-94
2022/08/29 03:09:32;;;;;;;5.53;2.13;;;20.50;99.90;;;;;;5057288;28;20216;-94
2022/08/29 03:12:05;;;;;;;4.47;2.60;;;20.40;99.90;;;;;;5059398;28;20277;-94
2022/08/29 03:14:37;;;;;;;5.73;2.40;;;20.30;99.90;;;;;;5057503;28;20231;-93
2022/08/29 03:17:12;;;;;;;5.23;2.17;;;20.30;99.90;;;;;;5057259;28;20282;-94
2022/08/29 03:19:43;;;;;;;5.07;2.53;;;20.20;99.90;;;;;;5058137;28;20206;-94
2022/08/29 03:22:14;;;;;;;5.17;3.00;;;20.00;99.90;;;;;;5057550;28;20204;-94
2022/08/29 03:24:46;;;;;;;4.77;2.40;;;19.90;99.90;;;;;;5057506;28;20212;-94
2022/08/29 03:27:19;;;;;;;6.67;2.90;;;19.80;99.90;;;;;;5056847;28;20274;-94
2022/08/29 03:29:51;;;;;;;8.30;3.57;;;19.70;99.90;;;;;;5057164;28;20216;-95
2022/08/29 03:32:23;;;;;;;5.73;2.67;;;19.60;99.90;;;;;;5056558;28;20290;-94
2022/08/29 03:34:55;;;;;;;5.33;2.73;;;19.60;99.90;;;;;;5060476;28;20235;-94
2022/08/29 03:37:26;;;;;;;6.03;3.50;;;19.60;99.90;;;;;;5062740;28;20242;-94
2022/08/29 03:39:58;;;;;;;5.77;2.73;;;19.50;99.90;;;;;;5065196;28;20775;-94
2022/08/29 03:42:33;;;;;;;6.23;2.73;;;19.50;99.90;;;;;;5065573;28;20282;-94
2022/08/29 03:45:05;;;;;;;8.77;2.60;;;19.50;99.90;;;;;;5065910;28;20212;-94
2022/08/29 03:47:37;;;;;;;8.43;3.10;;;19.50;99.90;;;;;;5063875;28;20223;-94
2022/08/29 03:50:11;;;;;;;8.63;2.87;;;19.50;99.90;;;;;;5071583;28;20208;-93
2022/08/29 03:52:43;;;;;;;4.53;2.77;;;19.40;99.90;;;;;;5069670;28;20234;-91
2022/08/29 03:55:15;;;;;;;5.80;2.87;;;19.40;99.90;;;;;;5067892;28;20212;-94
2022/08/29 03:57:49;;;;;;;8.53;3.20;;;19.30;99.90;;;;;;5057770;28;20246;-95
2022/08/29 04:00:22;;;;;;;7.97;3.57;;;19.20;99.90;;;;;;5057014;28;20212;-94
2022/08/29 04:02:54;;;;;;;6.33;2.90;;;19.10;99.90;;;;;;5055805;28;20228;-94
2022/08/29 04:05:26;;;;;;;5.93;2.53;;;19.10;99.90;;;;;;5056817;28;20232;-93
2022/08/29 04:08:00;;;;;;;6.13;2.90;;;19.00;99.90;;;;;;5059725;28;20215;-94
2022/08/29 04:10:36;;;;;;;6.80;2.60;;;19.00;99.90;;;;;;5056282;28;20212;-94
2022/08/29 04:13:10;;;;;;;4.67;2.50;;;19.00;99.90;;;;;;5056708;28;20200;-94
2022/08/29 04:15:43;;;;;;;4.87;2.70;;;18.80;99.90;;;;;;5056775;28;20267;-94
2022/08/29 04:18:14;;;;;;;4.93;2.90;;;18.80;99.90;;;;;;5056953;28;20212;-94
2022/08/29 04:20:51;;;;;;;6.90;3.07;;;18.70;99.90;;;;;;5060466;28;20208;-94
2022/08/29 04:23:22;;;;;;;4.17;2.50;;;18.60;99.90;;;;;;5058189;28;20268;-94
2022/08/29 04:25:54;;;;;;;4.30;2.50;;;18.60;99.90;;;;;;5060796;28;20220;-94
2022/08/29 04:28:47;;;;;;;5.10;2.90;;;18.60;99.90;;;;;;5061867;28;20272;-93
2022/08/29 04:31:20;;;;;;;6.37;2.40;;;18.50;99.90;;;;;;5060144;28;20220;-93
2022/08/29 04:33:52;;;;;;;3.83;2.53;;;18.50;99.90;;;;;;5064149;28;20300;-94
2022/08/29 04:36:24;;;;;;;5.80;2.60;;;18.40;99.90;;;;;;5059775;28;20326;-94
2022/08/29 04:38:56;;;;;;;5.20;2.40;;;18.30;99.90;;;;;;5059856;28;20213;-94
2022/08/29 04:41:27;;;;;;;6.70;2.93;;;18.30;99.90;;;;;;5061204;28;20208;-93
2022/08/29 04:44:00;;;;;;;4.47;2.63;;;18.20;99.90;;;;;;5060546;28;20215;-94
2022/08/29 04:46:32;;;;;;;6.13;2.90;;;18.20;99.90;;;;;;5039359;28;20287;-94
2022/08/29 04:49:04;;;;;;;5.43;2.90;;;18.10;99.90;;;;;;5039993;28;20216;-94
2022/08/29 04:51:36;;;;;;;4.40;2.93;;;18.10;99.90;;;;;;5039623;28;20209;-94
2022/08/29 04:54:08;;;;;;;6.53;2.83;;;18.10;99.90;;;;;;5040486;28;20224;-94
2022/08/29 04:56:39;;;;;;;5.80;2.60;;;18.10;99.90;;;;;;5039804;28;20689;-94
2022/08/29 04:59:20;;;;;;;11.93;7.27;;;18.00;99.90;;;;;;5040224;28;20543;-94
2022/08/29 05:01:53;;;;;;;21.57;14.70;;;18.00;99.90;;;;;;5038696;28;20746;-94
2022/08/29 05:04:24;;;;;;;9.20;6.80;;;18.00;99.90;;;;;;5040012;28;20213;-94
2022/08/29 05:06:56;;;;;;;8.07;3.20;;;17.90;99.90;;;;;;5039483;28;20213;-94
2022/08/29 05:09:27;;;;;;;4.47;3.10;;;17.90;99.90;;;;;;5039587;28;20645;-94
2022/08/29 05:11:59;;;;;;;7.27;3.60;;;17.90;99.90;;;;;;5038549;28;20262;-92
2022/08/29 05:14:33;;;;;;;7.10;3.37;;;17.80;99.90;;;;;;5039458;28;20669;-94
2022/08/29 05:17:05;;;;;;;8.83;3.50;;;17.70;99.90;;;;;;5039527;28;20228;-94
2022/08/29 05:19:42;;;;;;;4.83;3.03;;;17.60;99.90;;;;;;5040037;28;20292;-94
2022/08/29 05:22:15;;;;;;;5.27;3.30;;;17.50;99.90;;;;;;5038834;28;20275;-94
2022/08/29 05:24:46;;;;;;;5.27;2.93;;;17.40;99.90;;;;;;5038616;28;20209;-94
2022/08/29 05:27:21;;;;;;;5.60;3.10;;;17.40;99.90;;;;;;5039801;28;20209;-94
2022/08/29 05:29:57;;;;;;;5.67;3.37;;;17.30;99.90;;;;;;5039532;28;20200;-94
2022/08/29 05:32:28;;;;;;;5.20;3.13;;;17.20;99.90;;;;;;5040186;28;20263;-94
2022/08/29 05:34:59;;;;;;;7.80;3.43;;;17.20;99.90;;;;;;5039524;28;20201;-94
2022/08/29 05:37:31;;;;;;;7.03;3.50;;;17.10;99.90;;;;;;5043615;28;20268;-94
2022/08/29 05:40:07;;;;;;;5.10;3.20;;;17.10;99.90;;;;;;5043377;28;20209;-95
2022/08/29 05:42:39;;;;;;;5.43;3.07;;;17.10;99.90;;;;;;5038432;28;20291;-95
2022/08/29 05:45:13;;;;;;;7.20;3.53;;;17.10;99.90;;;;;;5050785;28;20220;-94
2022/08/29 05:47:45;;;;;;;6.23;3.57;;;17.10;99.90;;;;;;5061623;28;20208;-94
2022/08/29 05:50:16;;;;;;;5.07;3.40;;;17.10;99.90;;;;;;5061248;28;20204;-94
2022/08/29 05:52:48;;;;;;;5.23;3.03;;;17.00;99.90;;;;;;5060122;28;20200;-93
2022/08/29 05:55:19;;;;;;;6.57;2.83;;;17.10;99.90;;;;;;5062994;28;20216;-94
2022/08/29 05:57:53;;;;;;;5.33;2.67;;;17.10;99.90;;;;;;5062530;28;20228;-95
2022/08/29 06:00:26;;;;;;;4.90;2.60;;;17.00;99.90;;;;;;5058197;28;20259;-95
2022/08/29 06:02:57;;;;;;;8.87;3.17;;;17.10;99.90;;;;;;5060771;28;20714;-94
2022/08/29 06:05:29;;;;;;;5.00;2.70;;;17.00;99.90;;;;;;5060743;28;20552;-96
2022/08/29 06:08:01;;;;;;;5.77;3.07;;;17.00;99.90;;;;;;5058551;28;20236;-94
2022/08/29 06:10:33;;;;;;;5.07;2.87;;;16.90;99.90;;;;;;5058110;28;20219;-94
2022/08/29 06:13:04;;;;;;;6.53;2.77;;;16.90;99.90;;;;;;5058337;28;20633;-94
2022/08/29 06:15:40;;;;;;;4.50;2.40;;;16.90;99.90;;;;;;5062932;28;20268;-94
2022/08/29 06:23:47;;;;;;;4.83;2.47;;;16.80;99.90;;;;;;5046625;28;20244;-94
2022/08/29 06:26:22;;;;;;;6.30;3.00;;;16.80;99.90;;;;;;5033167;28;20231;-93
2022/08/29 06:28:58;;;;;;;5.33;2.87;;;16.70;99.90;;;;;;5044567;28;20203;-94
2022/08/29 06:31:36;;;;;;;6.80;2.70;;;16.70;99.90;;;;;;5036291;28;20212;-94
2022/08/29 06:34:13;;;;;;;3.07;2.43;;;16.60;99.90;;;;;;5052356;28;20200;-94
2022/08/29 06:36:59;;;;;;;4.27;2.60;;;16.50;99.90;;;;;;5040126;28;20264;-93
2022/08/29 06:39:30;;;;;;;4.03;2.50;;;16.50;99.90;;;;;;5057648;28;20189;-94
2022/08/29 06:42:02;;;;;;;5.60;2.80;;;16.50;99.90;;;;;;5054370;28;20209;-94
2022/08/29 06:44:33;;;;;;;4.83;2.50;;;16.60;99.90;;;;;;5056672;28;20192;-94
2022/08/29 06:47:29;;;;;;;3.90;2.40;;;16.50;99.90;;;;;;5057666;28;20201;-94
2022/08/29 06:50:05;;;;;;;4.20;2.33;;;16.50;99.90;;;;;;5056792;28;20219;-94
2022/08/29 06:52:36;;;;;;;4.80;2.73;;;16.50;99.90;;;;;;5056708;28;20209;-93
2022/08/29 06:55:10;;;;;;;6.33;3.33;;;16.50;99.90;;;;;;5054850;28;20185;-92
2022/08/29 06:57:45;;;;;;;5.90;2.93;;;16.40;99.90;;;;;;5053451;28;20235;-92
2022/08/29 07:00:17;;;;;;;5.53;2.63;;;16.40;99.90;;;;;;5042817;28;20197;-93
2022/08/29 07:02:55;;;;;;;3.73;2.43;;;16.40;99.90;;;;;;5027681;28;20204;-93
2022/08/29 07:05:26;;;;;;;3.37;2.40;;;16.40;99.90;;;;;;5041956;28;20242;-93
2022/08/29 07:07:57;;;;;;;5.37;2.40;;;16.40;99.90;;;;;;5050494;28;20217;-93
2022/08/29 07:10:28;;;;;;;3.53;2.53;;;16.30;99.90;;;;;;5047452;28;20216;-93
2022/08/29 07:13:00;;;;;;;4.63;2.50;;;16.30;99.90;;;;;;5053987;28;20256;-92
2022/08/29 07:15:31;;;;;;;4.20;2.50;;;16.30;99.90;;;;;;5044397;28;20272;-93
2022/08/29 07:18:05;;;;;;;5.63;2.90;;;16.20;99.90;;;;;;5036879;28;20230;-93
2022/08/29 07:20:38;;;;;;;3.80;2.70;;;16.20;99.90;;;;;;5037158;28;20213;-93
2022/08/29 07:23:10;;;;;;;3.40;2.50;;;16.20;99.90;;;;;;5030300;28;20221;-93
2022/08/29 07:25:42;;;;;;;4.20;2.33;;;16.10;99.90;;;;;;5020985;28;20220;-92
2022/08/29 07:28:14;;;;;;;4.37;2.73;;;16.10;99.90;;;;;;5020732;28;20206;-92
2022/08/29 07:30:45;;;;;;;5.03;2.80;;;16.00;99.90;;;;;;5024095;28;20213;-93
2022/08/29 07:33:22;;;;;;;4.17;2.43;;;15.90;99.90;;;;;;5012708;28;20205;-93
2022/08/29 07:36:05;;;;;;;6.23;3.10;;;15.80;99.90;;;;;;5034503;28;20198;-91
2022/08/29 07:38:38;;;;;;;4.50;2.60;;;15.80;99.90;;;;;;5032669;28;20291;-92
2022/08/29 07:41:14;;;;;;;4.37;3.17;;;15.80;99.90;;;;;;5029680;28;20209;-92
2022/08/29 07:43:45;;;;;;;2.80;2.47;;;15.70;99.90;;;;;;5025347;28;20206;-92
2022/08/29 07:46:19;;;;;;;6.20;2.70;;;15.60;99.90;;;;;;5028079;28;20213;-91
2022/08/29 07:49:07;;;;;;;4.13;2.63;;;15.60;99.90;;;;;;5023624;28;20245;-94
2022/08/29 07:51:39;;;;;;;7.73;3.27;;;15.50;99.90;;;;;;5001644;28;20681;-95
2022/08/29 07:54:15;;;;;;;3.93;3.10;;;15.50;99.90;;;;;;5017936;28;20200;-92
2022/08/29 07:56:49;;;;;;;4.17;2.67;;;15.40;99.90;;;;;;5019322;28;20209;-92
2022/08/29 07:59:21;;;;;;;5.47;2.90;;;15.50;99.90;;;;;;5018352;28;20256;-92
2022/08/29 08:01:54;;;;;;;5.40;3.03;;;15.50;99.90;;;;;;5020094;28;20235;-92
2022/08/29 08:04:30;;;;;;;6.03;3.23;;;15.40;99.90;;;;;;5022991;28;20276;-92
2022/08/29 08:07:01;;;;;;;9.87;3.60;;;15.40;99.90;;;;;;5022250;28;20209;-91
2022/08/29 08:09:33;;;;;;;3.23;2.73;;;15.40;99.90;;;;;;5022407;28;20221;-92
2022/08/29 08:12:21;;;;;;;4.43;2.97;;;15.30;99.90;;;;;;4999054;28;20230;-91
2022/08/29 08:15:07;;;;;;;5.87;2.87;;;15.30;99.90;;;;;;5009876;28;20297;-92
2022/08/29 08:17:41;;;;;;;4.87;2.67;;;15.20;99.90;;;;;;5001916;28;20260;-92
2022/08/29 08:20:16;;;;;;;5.97;3.43;;;15.10;99.90;;;;;;5004057;28;20210;-92
2022/08/29 08:22:47;;;;;;;6.43;2.80;;;15.10;99.90;;;;;;5003340;28;20218;-92
2022/08/29 08:25:19;;;;;;;4.27;2.83;;;15.00;99.90;;;;;;5002031;28;20210;-92
2022/08/29 08:27:54;;;;;;;5.53;2.77;;;14.90;99.90;;;;;;5006352;28;20194;-92
2022/08/29 08:30:26;;;;;;;5.60;3.13;;;14.90;99.90;;;;;;5004258;28;20740;-92
2022/08/29 08:33:04;;;;;;;4.90;3.00;;;14.90;99.90;;;;;;5002419;28;20210;-92
2022/08/29 08:35:38;;;;;;;3.90;3.23;;;14.80;99.90;;;;;;5003869;28;20284;-92
2022/08/29 08:38:11;;;;;;;4.07;3.30;;;14.80;99.90;;;;;;5002713;28;20236;-92
2022/08/29 08:40:48;;;;;;;4.17;2.90;;;14.80;99.90;;;;;;5003957;28;20302;-92
2022/08/29 08:43:26;;;;;;;5.33;3.40;;;14.80;99.90;;;;;;5000136;28;20718;-91
2022/08/29 08:45:58;;;;;;;5.57;3.33;;;14.70;99.90;;;;;;5001135;28;20240;-92
2022/08/29 08:48:37;;;;;;;4.83;3.30;;;14.70;99.90;;;;;;5000512;28;20211;-92
2022/08/29 08:51:20;;;;;;;5.37;3.47;;;14.60;99.90;;;;;;5000614;28;20210;-92
2022/08/29 08:53:55;;;;;;;4.73;3.20;;;14.60;99.90;;;;;;5006216;28;20208;-92
2022/08/29 08:56:33;;;;;;;4.27;3.20;;;14.60;99.90;;;;;;5020664;28;20220;-92
2022/08/29 08:59:12;;;;;;;5.07;3.40;;;14.60;99.90;;;;;;5019949;28;20272;-92
2022/08/29 09:01:46;;;;;;;4.13;3.30;;;14.50;99.90;;;;;;5019081;28;20209;-91
2022/08/29 09:04:37;;;;;;;5.57;3.27;;;14.50;99.90;;;;;;5019611;28;20214;-92
2022/08/29 09:07:26;;;;;;;4.43;3.50;;;14.50;99.90;;;;;;5019365;28;20214;-92
2022/08/29 09:10:11;;;;;;;7.30;3.63;;;14.50;99.90;;;;;;5019969;28;20218;-92
2022/08/29 09:12:55;;;;;;;7.00;3.20;;;14.50;99.90;;;;;;5018005;28;20236;-91
2022/08/29 09:15:32;;;;;;;7.00;3.50;;;14.50;99.90;;;;;;5008388;28;20226;-91
2022/08/29 09:18:07;;;;;;;5.50;3.20;;;14.50;99.90;;;;;;4999915;28;20237;-91
2022/08/29 09:20:43;;;;;;;5.37;3.47;;;14.50;99.90;;;;;;5000342;28;20245;-92
2022/08/29 09:23:23;;;;;;;8.00;3.43;;;14.50;99.90;;;;;;4999528;28;20234;-92
2022/08/29 09:25:55;;;;;;;8.83;3.53;;;14.50;99.90;;;;;;5000119;28;20217;-92
2022/08/29 09:28:26;;;;;;;4.03;3.23;;;14.40;99.90;;;;;;5000292;28;20265;-92
2022/08/29 09:31:25;;;;;;;5.00;3.67;;;14.40;99.90;;;;;;4983616;28;20282;-92
2022/08/29 09:33:58;;;;;;;7.43;3.77;;;14.40;99.90;;;;;;5000045;28;20671;-92
2022/08/29 09:36:39;;;;;;;7.03;4.33;;;14.30;99.90;;;;;;4999485;28;20202;-92
2022/08/29 09:39:20;;;;;;;5.93;3.77;;;14.30;99.90;;;;;;5000350;28;20238;-92
2022/08/29 09:41:53;;;;;;;5.63;3.47;;;14.30;99.90;;;;;;4999645;28;20198;-92
2022/08/29 09:44:28;;;;;;;7.97;4.00;;;14.30;99.90;;;;;;4999262;28;20229;-92
2022/08/29 09:47:08;;;;;;;5.13;2.93;;;14.30;99.90;;;;;;4982336;28;20214;-92
2022/08/29 09:49:41;;;;;;;3.80;3.40;;;14.30;99.90;;;;;;4983187;28;20233;-91
2022/08/29 09:52:16;;;;;;;5.87;3.50;;;14.30;99.90;;;;;;4998664;28;20214;-92
2022/08/29 09:54:51;;;;;;;5.53;3.00;;;14.30;99.90;;;;;;4999301;28;20517;-92
2022/08/29 09:57:25;;;;;;;6.23;3.23;;;14.30;99.90;;;;;;4999453;28;20405;-92
2022/08/29 10:00:12;;;;;;;5.03;3.17;;;14.30;99.90;;;;;;4998473;28;20238;-93
2022/08/29 10:02:48;;;;;;;5.13;3.43;;;14.30;99.90;;;;;;4998419;28;20288;-92
2022/08/29 10:05:40;;;;;;;8.10;3.50;;;14.30;99.90;;;;;;4999123;28;20264;-92
2022/08/29 10:08:30;;;;;;;6.37;3.60;;;14.30;99.90;;;;;;4999479;28;20214;-92
2022/08/29 10:11:05;;;;;;;5.90;3.17;;;14.20;99.90;;;;;;4999207;28;20273;-92
2022/08/29 10:13:48;;;;;;;6.13;3.30;;;14.20;99.90;;;;;;4998458;28;20209;-92
2022/08/29 10:16:33;;;;;;;4.37;3.13;;;14.20;99.90;;;;;;5017080;28;20240;-92
2022/08/29 10:19:07;;;;;;;6.87;3.23;;;14.20;99.90;;;;;;5018458;28;20296;-92
2022/08/29 10:21:49;;;;;;;5.30;3.40;;;14.20;99.90;;;;;;5016832;28;20320;-92
2022/08/29 10:24:41;;;;;;;5.07;3.27;;;14.20;99.90;;;;;;5018194;28;20647;-91
2022/08/29 10:27:25;;;;;;;7.43;3.57;;;14.10;99.90;;;;;;5018090;28;20213;-91
2022/08/29 10:30:11;;;;;;;7.90;3.40;;;14.10;99.90;;;;;;5020741;28;20205;-91
2022/08/29 10:33:11;;;;;;;5.60;3.20;;;14.20;99.90;;;;;;5018998;28;20225;-92
2022/08/29 10:35:52;;;;;;;5.63;3.70;;;14.10;99.90;;;;;;5019447;28;20213;-94
2022/08/29 10:38:38;;;;;;;5.60;3.57;;;14.10;99.90;;;;;;5023016;28;20215;-95
2022/08/29 10:41:19;;;;;;;5.53;3.90;;;14.10;99.90;;;;;;5020103;28;20218;-95
2022/08/29 10:44:01;;;;;;;4.57;3.13;;;14.00;99.90;;;;;;5003507;28;20197;-92
2022/08/29 10:47:15;;;;;;;6.37;3.37;;;14.00;99.90;;;;;;5018578;28;20240;-92
2022/08/29 10:49:59;;;;;;;8.63;3.60;;;14.00;99.90;;;;;;5021848;28;20217;-92
2022/08/29 10:52:36;;;;;;;7.57;3.73;;;13.90;99.90;;;;;;5017834;28;20273;-92
2022/08/29 10:55:16;;;;;;;5.60;3.50;;;13.90;99.90;;;;;;5018047;28;20206;-92
2022/08/29 10:58:01;;;;;;;4.97;3.30;;;13.90;99.90;;;;;;5018392;28;20229;-92
2022/08/29 11:00:42;;;;;;;4.67;3.20;;;13.90;99.90;;;;;;5017594;28;20287;-91
2022/08/29 11:03:23;;;;;;;7.30;3.93;;;13.90;99.90;;;;;;5018456;28;20662;-91
2022/08/29 11:06:00;;;;;;;7.97;3.90;;;13.90;99.90;;;;;;5039493;28;20235;-91
2022/08/29 11:08:36;;;;;;;6.63;3.83;;;13.90;99.90;;;;;;5038169;28;20201;-92
2022/08/29 11:11:08;;;;;;;5.13;3.20;;;13.80;99.90;;;;;;5037614;28;20227;-92
2022/08/29 11:13:44;;;;;;;5.40;3.30;;;13.80;99.90;;;;;;5037355;28;20263;-92
2022/08/29 11:16:22;;;;;;;5.43;3.57;;;13.80;99.90;;;;;;5019802;28;20213;-92
2022/08/29 11:18:58;;;;;;;5.13;3.17;;;13.90;99.90;;;;;;5018039;28;20210;-91
2022/08/29 11:21:36;;;;;;;4.77;3.07;;;13.70;99.90;;;;;;5016997;28;20202;-92
2022/08/29 11:24:10;;;;;;;5.83;4.23;;;13.70;99.90;;;;;;5018394;28;20260;-92
2022/08/29 11:26:51;;;;;;;4.97;3.27;;;13.60;99.90;;;;;;5017836;28;20208;-92
2022/08/29 11:29:31;;;;;;;6.30;3.57;;;13.60;99.90;;;;;;5018090;28;20271;-92
2022/08/29 11:32:10;;;;;;;7.40;3.77;;;13.60;99.90;;;;;;5016974;28;20209;-92
2022/08/29 11:34:53;;;;;;;6.83;3.90;;;13.60;99.90;;;;;;5017194;28;20240;-92
2022/08/29 11:37:59;;;;;;;8.30;3.73;;;13.60;99.90;;;;;;5017167;28;20236;-91
2022/08/29 11:40:55;;;;;;;4.87;3.23;;;13.60;99.90;;;;;;5016931;28;20268;-92
2022/08/29 11:43:49;;;;;;;5.87;3.40;;;13.60;99.90;;;;;;5016372;28;20292;-91
2022/08/29 11:46:37;;;;;;;7.80;3.20;;;13.50;99.90;;;;;;5001833;28;20670;-92
2022/08/29 11:49:45;;;;;;;4.77;3.63;;;13.50;99.90;;;;;;4997531;28;20242;-92
2022/08/29 11:52:26;;;;;;;10.03;3.57;;;13.50;99.90;;;;;;4957364;29;20274;-93
2022/08/29 11:55:26;;;;;;;5.50;3.50;;;13.50;99.90;;;;;;4996771;28;20210;-92
2022/08/29 11:58:01;;;;;;;5.77;3.37;;;13.50;99.90;;;;;;4997002;28;20234;-91
2022/08/29 12:00:46;;;;;;;8.53;4.00;;;13.40;99.90;;;;;;5001580;28;20244;-92
2022/08/29 12:03:54;;;;;;;9.70;3.93;;;13.40;99.90;;;;;;5001201;28;20232;-92
2022/08/29 12:06:43;;;;;;;5.77;3.70;;;13.40;99.90;;;;;;5000264;28;20194;-92
2022/08/29 12:09:49;;;;;;;6.23;3.80;;;13.40;99.90;;;;;;4997812;28;20206;-91
2022/08/29 12:12:45;;;;;;;4.57;3.50;;;13.40;99.90;;;;;;5010955;28;20676;-91
2022/08/29 12:15:45;;;;;;;6.87;3.53;;;13.30;99.90;;;;;;5010046;28;20238;-91
2022/08/29 12:18:35;;;;;;;9.43;3.67;;;13.30;99.90;;;;;;4996892;28;20218;-92
2022/08/29 12:21:45;;;;;;;9.00;3.77;;;13.40;99.90;;;;;;4999698;28;20273;-92
2022/08/29 12:24:40;;;;;;;5.10;3.73;;;13.30;99.90;;;;;;4998458;28;20218;-91
2022/08/29 12:27:46;;;;;;;4.53;3.20;;;13.30;99.90;;;;;;4997361;28;20302;-91
2022/08/29 12:30:19;;;;;;;6.27;3.50;;;13.30;99.90;;;;;;4996999;28;20230;-91
2022/08/29 12:33:05;;;;;;;4.50;3.57;;;13.30;99.90;;;;;;4979794;28;20218;-92
2022/08/29 12:36:09;;;;;;;7.83;3.63;;;13.30;99.90;;;;;;4997553;28;20261;-92
2022/08/29 12:38:54;;;;;;;8.00;3.90;;;13.30;99.90;;;;;;4997759;28;20202;-91
2022/08/29 12:41:41;;;;;;;5.47;3.90;;;13.30;99.90;;;;;;4997517;28;20230;-92
2022/08/29 12:44:15;;;;;;;8.43;4.60;;;13.30;99.90;;;;;;4998160;28;20284;-92
2022/08/29 12:46:51;;;;;;;6.67;3.80;;;13.30;99.90;;;;;;5000104;28;20233;-92
2022/08/29 12:49:28;;;;;;;6.93;3.60;;;13.40;99.90;;;;;;5008118;28;20201;-92
2022/08/29 12:52:02;;;;;;;8.33;3.60;;;13.40;99.90;;;;;;5018825;28;20197;-92
2022/08/29 12:54:38;;;;;;;9.90;4.20;;;13.40;99.90;;;;;;5019971;28;20190;-92
2022/08/29 12:59:44;;;;;;;5.20;3.60;;;13.40;99.90;;;;;;5058557;28;20205;-94
2022/08/29 13:02:26;;;;;;;5.90;3.50;;;13.30;99.90;;;;;;5052492;28;20197;-92
2022/08/29 13:04:58;;;;;;;5.60;3.70;;;13.30;99.90;;;;;;5043043;28;20212;-92
2022/08/29 13:07:31;;;;;;;6.17;3.50;;;13.30;99.90;;;;;;5042714;28;20266;-92
2022/08/29 13:10:06;;;;;;;4.93;3.83;;;13.20;99.90;;;;;;5043762;28;20590;-92
2022/08/29 13:12:37;;;;;;;6.77;4.07;;;13.20;99.90;;;;;;5039149;28;20236;-93
2022/08/29 13:15:18;;;;;;;7.93;3.90;;;13.20;99.90;;;;;;5039715;28;20282;-92
2022/08/29 13:17:51;;;;;;;6.13;3.80;;;13.20;99.90;;;;;;5039199;28;20212;-92
2022/08/29 13:20:44;;;;;;;5.67;3.40;;;13.10;99.90;;;;;;5039274;28;20320;-92
2022/08/29 13:23:25;;;;;;;7.07;3.67;;;13.10;99.90;;;;;;5039036;28;20279;-93
2022/08/29 13:26:02;;;;;;;6.93;4.27;;;13.10;99.90;;;;;;5039038;28;20243;-92
2022/08/29 13:28:40;;;;;;;8.43;4.17;;;13.10;99.90;;;;;;5041388;28;20220;-92
2022/08/29 13:31:28;;;;;;;5.17;3.60;;;13.10;99.90;;;;;;5044014;28;20208;-92
2022/08/29 13:34:22;;;;;;;10.10;4.17;;;13.10;99.90;;;;;;5043625;28;20212;-92
2022/08/29 13:37:06;;;;;;;6.33;3.80;;;13.10;99.90;;;;;;5039455;28;20232;-92
2022/08/29 13:39:47;;;;;;;4.20;3.63;;;13.10;99.90;;;;;;5041223;28;20320;-92
2022/08/29 13:42:32;;;;;;;8.50;3.93;;;13.10;99.90;;;;;;5038362;28;20233;-92
2022/08/29 13:45:13;;;;;;;6.17;3.83;;;13.20;99.90;;;;;;5044566;28;20232;-92
2022/08/29 13:48:03;;;;;;;6.43;3.83;;;13.10;99.90;;;;;;5043360;28;20584;-92